sensor_id;sensor_type;location;lat;lon;timestamp;pressure;altitude;pressure_sealevel;temperature;humidity
14790;BME280;7486;51.010;10.366;2024-01-25T00:00:19;98991.56;;;3.96;72.94
14790;BME280;7486;51.010;10.366;2024-01-25T00:03:04;99007.59;;;3.93;72.58
14790;BME280;7486;51.010;10.366;2024-01-25T00:05:50;99009.00;;;3.78;73.62
14790;BME280;7486;51.010;10.366;2024-01-25T00:08:35;98993.78;;;3.91;73.26
14790;BME280;7486;51.010;10.366;2024-01-25T00:11:20;98994.00;;;4.07;72.47
14790;BME280;7486;51.010;10.366;2024-01-25T00:14:06;98998.13;;;4.09;73.25
14790;BME280;7486;51.010;10.366;2024-01-25T00:16:52;99000.97;;;4.16;72.89
14790;BME280;7486;51.010;10.366;2024-01-25T00:19:37;98990.88;;;3.94;74.19
14790;BME280;7486;51.010;10.366;2024-01-25T00:22:23;99002.94;;;3.87;74.30
14790;BME280;7486;51.010;10.366;2024-01-25T00:25:09;99008.25;;;3.95;74.55
14790;BME280;7486;51.010;10.366;2024-01-25T00:27:54;99014.94;;;3.80;75.31
14790;BME280;7486;51.010;10.366;2024-01-25T00:30:39;99008.13;;;3.59;75.14
14790;BME280;7486;51.010;10.366;2024-01-25T00:33:25;99012.94;;;3.54;75.99
14790;BME280;7486;51.010;10.366;2024-01-25T00:36:11;99016.63;;;3.71;75.79
14790;BME280;7486;51.010;10.366;2024-01-25T00:38:57;99026.09;;;3.82;75.61
14790;BME280;7486;51.010;10.366;2024-01-25T00:41:44;98985.47;;;3.68;74.70
14790;BME280;7486;51.010;10.366;2024-01-25T00:44:31;99032.06;;;3.74;75.26
14790;BME280;7486;51.010;10.366;2024-01-25T00:47:17;99032.59;;;3.78;76.23
14790;BME280;7486;51.010;10.366;2024-01-25T00:50:03;99037.31;;;3.64;76.54
14790;BME280;7486;51.010;10.366;2024-01-25T00:52:52;99028.16;;;3.88;74.90
14790;BME280;7486;51.010;10.366;2024-01-25T00:55:38;99021.91;;;3.61;76.15
14790;BME280;7486;51.010;10.366;2024-01-25T00:58:24;99011.00;;;3.56;75.25
14790;BME280;7486;51.010;10.366;2024-01-25T01:01:10;99035.25;;;3.68;76.36
14790;BME280;7486;51.010;10.366;2024-01-25T01:03:58;99039.66;;;3.68;75.53
14790;BME280;7486;51.010;10.366;2024-01-25T01:06:44;99040.38;;;3.70;76.45
14790;BME280;7486;51.010;10.366;2024-01-25T01:09:30;99032.72;;;3.86;75.26
14790;BME280;7486;51.010;10.366;2024-01-25T01:12:16;99048.22;;;4.06;73.89
14790;BME280;7486;51.010;10.366;2024-01-25T01:15:01;99041.53;;;3.85;74.62
14790;BME280;7486;51.010;10.366;2024-01-25T01:17:47;99043.25;;;3.66;75.07
14790;BME280;7486;51.010;10.366;2024-01-25T01:20:33;99039.94;;;3.64;75.25
14790;BME280;7486;51.010;10.366;2024-01-25T01:23:19;99039.94;;;3.64;74.56
14790;BME280;7486;51.010;10.366;2024-01-25T01:26:05;99043.84;;;3.51;75.42
14790;BME280;7486;51.010;10.366;2024-01-25T01:28:50;99039.38;;;3.71;74.24
14790;BME280;7486;51.010;10.366;2024-01-25T01:31:35;99050.53;;;3.82;73.40
14790;BME280;7486;51.010;10.366;2024-01-25T01:34:21;99044.63;;;3.71;73.70
14790;BME280;7486;51.010;10.366;2024-01-25T01:37:07;99038.47;;;3.52;74.20
14790;BME280;7486;51.010;10.366;2024-01-25T01:39:52;99015.88;;;3.42;73.94
14790;BME280;7486;51.010;10.366;2024-01-25T01:42:37;99060.03;;;3.83;73.39
14790;BME280;7486;51.010;10.366;2024-01-25T01:45:23;99063.22;;;3.87;72.95
14790;BME280;7486;51.010;10.366;2024-01-25T01:48:08;99064.09;;;4.05;72.47
14790;BME280;7486;51.010;10.366;2024-01-25T01:50:54;99023.84;;;3.96;71.60
14790;BME280;7486;51.010;10.366;2024-01-25T01:53:40;99053.06;;;4.01;72.04
14790;BME280;7486;51.010;10.366;2024-01-25T01:56:27;99051.97;;;4.04;71.76
14790;BME280;7486;51.010;10.366;2024-01-25T01:59:13;99054.94;;;3.82;71.87
14790;BME280;7486;51.010;10.366;2024-01-25T02:01:58;99059.09;;;3.75;72.28
14790;BME280;7486;51.010;10.366;2024-01-25T02:04:43;99064.78;;;3.60;72.97
14790;BME280;7486;51.010;10.366;2024-01-25T02:07:30;99066.47;;;3.42;73.57
14790;BME280;7486;51.010;10.366;2024-01-25T02:10:16;99059.28;;;3.44;73.70
14790;BME280;7486;51.010;10.366;2024-01-25T02:13:01;99050.66;;;3.81;72.50
14790;BME280;7486;51.010;10.366;2024-01-25T02:15:47;99049.44;;;3.75;72.25
14790;BME280;7486;51.010;10.366;2024-01-25T02:18:33;99041.06;;;3.62;71.82
14790;BME280;7486;51.010;10.366;2024-01-25T02:21:19;99068.78;;;3.55;72.50
14790;BME280;7486;51.010;10.366;2024-01-25T02:24:05;99050.19;;;3.48;72.95
14790;BME280;7486;51.010;10.366;2024-01-25T02:26:51;99059.28;;;3.44;72.78
14790;BME280;7486;51.010;10.366;2024-01-25T02:29:36;99050.59;;;3.53;72.71
14790;BME280;7486;51.010;10.366;2024-01-25T02:32:22;99008.56;;;3.36;73.35
14790;BME280;7486;51.010;10.366;2024-01-25T02:35:08;99053.03;;;3.64;72.70
14790;BME280;7486;51.010;10.366;2024-01-25T02:37:53;99034.16;;;3.61;72.55
14790;BME280;7486;51.010;10.366;2024-01-25T02:40:39;99018.44;;;3.61;72.56
14790;BME280;7486;51.010;10.366;2024-01-25T02:43:25;99023.69;;;3.61;72.79
14790;BME280;7486;51.010;10.366;2024-01-25T02:46:10;99030.25;;;3.75;72.58
14790;BME280;7486;51.010;10.366;2024-01-25T02:48:56;99025.56;;;3.78;72.05
14790;BME280;7486;51.010;10.366;2024-01-25T02:51:41;99017.28;;;3.83;71.29
14790;BME280;7486;51.010;10.366;2024-01-25T02:54:27;99014.97;;;3.70;71.65
14790;BME280;7486;51.010;10.366;2024-01-25T02:57:12;99018.41;;;3.71;71.75
14790;BME280;7486;51.010;10.366;2024-01-25T02:59:58;99019.84;;;3.55;72.52
14790;BME280;7486;51.010;10.366;2024-01-25T03:02:43;99019.28;;;3.61;73.03
14790;BME280;7486;51.010;10.366;2024-01-25T03:05:28;98995.31;;;3.47;74.63
14790;BME280;7486;51.010;10.366;2024-01-25T03:08:14;99025.41;;;3.33;75.62
14790;BME280;7486;51.010;10.366;2024-01-25T03:10:59;99022.91;;;3.41;74.77
14790;BME280;7486;51.010;10.366;2024-01-25T03:13:45;99022.91;;;3.22;75.96
14790;BME280;7486;51.010;10.366;2024-01-25T03:16:30;99020.16;;;3.24;75.22
14790;BME280;7486;51.010;10.366;2024-01-25T03:19:16;99004.34;;;2.96;75.60
14790;BME280;7486;51.010;10.366;2024-01-25T03:22:01;99038.34;;;3.15;75.57
14790;BME280;7486;51.010;10.366;2024-01-25T03:24:47;99055.97;;;3.23;75.76
14790;BME280;7486;51.010;10.366;2024-01-25T03:27:32;99044.78;;;3.50;74.20
14790;BME280;7486;51.010;10.366;2024-01-25T03:30:18;99061.75;;;3.55;73.42
14790;BME280;7486;51.010;10.366;2024-01-25T03:33:03;99069.22;;;3.41;74.80
14790;BME280;7486;51.010;10.366;2024-01-25T03:35:49;99068.91;;;3.15;75.70
14790;BME280;7486;51.010;10.366;2024-01-25T03:38:35;99062.44;;;3.19;75.68
14790;BME280;7486;51.010;10.366;2024-01-25T03:41:20;99062.59;;;3.08;76.04
14790;BME280;7486;51.010;10.366;2024-01-25T03:44:06;99066.97;;;2.88;77.16
14790;BME280;7486;51.010;10.366;2024-01-25T03:46:51;99057.34;;;2.79;77.82
14790;BME280;7486;51.010;10.366;2024-01-25T03:49:37;99080.50;;;2.84;78.43
14790;BME280;7486;51.010;10.366;2024-01-25T03:52:22;99074.84;;;2.88;78.00
14790;BME280;7486;51.010;10.366;2024-01-25T03:55:08;99065.34;;;2.87;77.79
14790;BME280;7486;51.010;10.366;2024-01-25T03:57:53;99086.00;;;2.81;78.84
14790;BME280;7486;51.010;10.366;2024-01-25T04:00:39;99099.22;;;2.89;78.40
14790;BME280;7486;51.010;10.366;2024-01-25T04:03:24;99088.47;;;2.92;77.68
14790;BME280;7486;51.010;10.366;2024-01-25T04:06:10;99092.31;;;2.88;78.07
14790;BME280;7486;51.010;10.366;2024-01-25T04:08:55;99073.31;;;2.67;78.16
14790;BME280;7486;51.010;10.366;2024-01-25T04:11:41;99099.66;;;2.94;77.76
14790;BME280;7486;51.010;10.366;2024-01-25T04:14:26;99111.63;;;2.87;77.70
14790;BME280;7486;51.010;10.366;2024-01-25T04:17:12;99116.56;;;2.80;78.13
14790;BME280;7486;51.010;10.366;2024-01-25T04:19:57;99112.47;;;2.97;77.67
14790;BME280;7486;51.010;10.366;2024-01-25T04:22:43;99115.91;;;3.07;76.38
14790;BME280;7486;51.010;10.366;2024-01-25T04:25:29;99128.03;;;3.08;77.14
14790;BME280;7486;51.010;10.366;2024-01-25T04:28:18;99122.09;;;2.96;76.86
14790;BME280;7486;51.010;10.366;2024-01-25T04:31:04;99121.13;;;2.97;76.62
14790;BME280;7486;51.010;10.366;2024-01-25T04:33:49;99122.81;;;3.08;76.22
14790;BME280;7486;51.010;10.366;2024-01-25T04:36:35;99097.59;;;3.16;74.82
14790;BME280;7486;51.010;10.366;2024-01-25T04:39:20;99145.69;;;3.25;74.92
14790;BME280;7486;51.010;10.366;2024-01-25T04:42:06;99121.97;;;3.07;74.35
14790;BME280;7486;51.010;10.366;2024-01-25T04:44:51;99148.84;;;3.19;75.01
14790;BME280;7486;51.010;10.366;2024-01-25T04:47:39;99134.53;;;3.33;74.46
14790;BME280;7486;51.010;10.366;2024-01-25T04:50:25;99146.41;;;3.37;73.39
14790;BME280;7486;51.010;10.366;2024-01-25T04:53:10;99147.22;;;3.28;73.58
14790;BME280;7486;51.010;10.366;2024-01-25T04:55:55;99139.75;;;3.23;73.35
14790;BME280;7486;51.010;10.366;2024-01-25T04:58:41;99127.88;;;2.90;73.84
14790;BME280;7486;51.010;10.366;2024-01-25T05:01:26;99147.13;;;2.80;74.90
14790;BME280;7486;51.010;10.366;2024-01-25T05:04:12;99176.94;;;3.07;75.29
14790;BME280;7486;51.010;10.366;2024-01-25T05:06:57;99186.59;;;3.07;74.99
14790;BME280;7486;51.010;10.366;2024-01-25T05:09:42;99175.16;;;3.08;74.18
14790;BME280;7486;51.010;10.366;2024-01-25T05:12:28;99181.34;;;3.16;73.56
14790;BME280;7486;51.010;10.366;2024-01-25T05:15:14;99182.47;;;3.14;74.46
14790;BME280;7486;51.010;10.366;2024-01-25T05:17:59;99175.81;;;3.00;74.05
14790;BME280;7486;51.010;10.366;2024-01-25T05:20:45;99177.06;;;2.96;74.38
14790;BME280;7486;51.010;10.366;2024-01-25T05:23:30;99182.69;;;3.01;74.09
14790;BME280;7486;51.010;10.366;2024-01-25T05:26:15;99187.78;;;2.93;74.16
14790;BME280;7486;51.010;10.366;2024-01-25T05:29:01;99190.69;;;3.00;74.29
14790;BME280;7486;51.010;10.366;2024-01-25T05:31:46;99191.09;;;3.05;73.89
14790;BME280;7486;51.010;10.366;2024-01-25T05:34:32;99197.34;;;3.23;73.31
14790;BME280;7486;51.010;10.366;2024-01-25T05:37:18;99211.41;;;3.22;73.04
14790;BME280;7486;51.010;10.366;2024-01-25T05:40:04;99215.50;;;3.15;73.19
14790;BME280;7486;51.010;10.366;2024-01-25T05:42:49;99213.16;;;3.12;73.28
14790;BME280;7486;51.010;10.366;2024-01-25T05:45:36;99216.31;;;3.06;74.05
14790;BME280;7486;51.010;10.366;2024-01-25T05:48:21;99212.00;;;2.86;74.18
14790;BME280;7486;51.010;10.366;2024-01-25T05:51:07;99216.00;;;2.80;75.07
14790;BME280;7486;51.010;10.366;2024-01-25T05:53:52;99209.66;;;2.83;75.06
14790;BME280;7486;51.010;10.366;2024-01-25T05:56:38;99231.88;;;2.98;74.58
14790;BME280;7486;51.010;10.366;2024-01-25T05:59:23;99238.06;;;2.97;74.35
14790;BME280;7486;51.010;10.366;2024-01-25T06:02:09;99243.22;;;2.78;75.34
14790;BME280;7486;51.010;10.366;2024-01-25T06:04:54;99254.41;;;2.80;75.09
14790;BME280;7486;51.010;10.366;2024-01-25T06:07:40;99239.94;;;2.85;74.65
14790;BME280;7486;51.010;10.366;2024-01-25T06:10:25;99243.44;;;2.95;73.87
14790;BME280;7486;51.010;10.366;2024-01-25T06:13:11;99242.19;;;2.90;74.13
14790;BME280;7486;51.010;10.366;2024-01-25T06:15:57;99252.66;;;2.90;74.38
14790;BME280;7486;51.010;10.366;2024-01-25T06:18:42;99253.78;;;2.67;75.18
14790;BME280;7486;51.010;10.366;2024-01-25T06:21:28;99246.81;;;2.77;74.19
14790;BME280;7486;51.010;10.366;2024-01-25T06:24:13;99210.25;;;2.56;73.99
14790;BME280;7486;51.010;10.366;2024-01-25T06:26:59;99256.84;;;2.72;74.16
14790;BME280;7486;51.010;10.366;2024-01-25T06:29:45;99235.69;;;2.54;74.81
14790;BME280;7486;51.010;10.366;2024-01-25T06:32:30;99246.25;;;2.73;74.09
14790;BME280;7486;51.010;10.366;2024-01-25T06:35:15;99269.25;;;2.79;73.82
14790;BME280;7486;51.010;10.366;2024-01-25T06:38:01;99279.78;;;2.89;74.13
14790;BME280;7486;51.010;10.366;2024-01-25T06:40:47;99272.53;;;2.72;74.03
14790;BME280;7486;51.010;10.366;2024-01-25T06:43:32;99293.38;;;2.83;74.53
14790;BME280;7486;51.010;10.366;2024-01-25T06:46:18;99293.50;;;2.81;74.44
14790;BME280;7486;51.010;10.366;2024-01-25T06:49:03;99303.53;;;2.76;73.86
14790;BME280;7486;51.010;10.366;2024-01-25T06:51:48;99301.78;;;2.56;74.56
14790;BME280;7486;51.010;10.366;2024-01-25T06:54:34;99292.22;;;2.45;74.65
14790;BME280;7486;51.010;10.366;2024-01-25T06:57:20;99308.63;;;2.78;73.87
14790;BME280;7486;51.010;10.366;2024-01-25T07:00:05;99293.03;;;2.67;73.43
14790;BME280;7486;51.010;10.366;2024-01-25T07:02:52;99308.16;;;2.93;73.20
14790;BME280;7486;51.010;10.366;2024-01-25T07:05:38;99305.81;;;2.90;72.48
14790;BME280;7486;51.010;10.366;2024-01-25T07:08:23;99301.63;;;2.57;73.34
14790;BME280;7486;51.010;10.366;2024-01-25T07:11:08;99290.03;;;2.50;73.15
14790;BME280;7486;51.010;10.366;2024-01-25T07:13:54;99310.53;;;2.45;73.97
14790;BME280;7486;51.010;10.366;2024-01-25T07:16:39;99316.53;;;2.36;74.53
14790;BME280;7486;51.010;10.366;2024-01-25T07:19:25;99309.31;;;2.29;75.28
14790;BME280;7486;51.010;10.366;2024-01-25T07:22:10;99317.66;;;2.43;74.52
14790;BME280;7486;51.010;10.366;2024-01-25T07:24:55;99320.41;;;2.62;73.58
14790;BME280;7486;51.010;10.366;2024-01-25T07:27:45;99310.63;;;2.64;73.23
14790;BME280;7486;51.010;10.366;2024-01-25T07:30:31;99319.25;;;2.76;72.74
14790;BME280;7486;51.010;10.366;2024-01-25T07:33:16;99302.34;;;2.59;73.74
14790;BME280;7486;51.010;10.366;2024-01-25T07:36:02;99303.50;;;2.67;73.09
14790;BME280;7486;51.010;10.366;2024-01-25T07:38:49;99272.88;;;2.57;72.69
14790;BME280;7486;51.010;10.366;2024-01-25T07:41:35;99285.81;;;2.59;73.11
14790;BME280;7486;51.010;10.366;2024-01-25T07:44:22;99335.19;;;2.94;72.32
14790;BME280;7486;51.010;10.366;2024-01-25T07:47:07;99323.03;;;2.62;73.25
14790;BME280;7486;51.010;10.366;2024-01-25T07:49:53;99334.44;;;2.41;73.51
14790;BME280;7486;51.010;10.366;2024-01-25T07:52:38;99366.13;;;2.68;73.85
14790;BME280;7486;51.010;10.366;2024-01-25T07:55:24;99365.56;;;2.85;72.65
14790;BME280;7486;51.010;10.366;2024-01-25T07:58:10;99314.66;;;2.69;72.24
14790;BME280;7486;51.010;10.366;2024-01-25T08:00:56;99374.13;;;3.18;71.02
14790;BME280;7486;51.010;10.366;2024-01-25T08:03:42;99378.78;;;3.35;71.14
14790;BME280;7486;51.010;10.366;2024-01-25T08:06:27;99373.69;;;3.12;71.58
14790;BME280;7486;51.010;10.366;2024-01-25T08:09:12;99376.28;;;3.33;71.23
14790;BME280;7486;51.010;10.366;2024-01-25T08:11:58;99368.31;;;3.35;70.01
14790;BME280;7486;51.010;10.366;2024-01-25T08:14:43;99380.59;;;3.44;70.03
14790;BME280;7486;51.010;10.366;2024-01-25T08:17:29;99374.16;;;3.57;69.54
14790;BME280;7486;51.010;10.366;2024-01-25T08:20:15;99349.31;;;3.42;70.03
14790;BME280;7486;51.010;10.366;2024-01-25T08:23:00;99371.38;;;3.49;69.92
14790;BME280;7486;51.010;10.366;2024-01-25T08:25:46;99358.19;;;3.60;69.64
14790;BME280;7486;51.010;10.366;2024-01-25T08:28:31;99375.66;;;3.50;69.99
14790;BME280;7486;51.010;10.366;2024-01-25T08:31:17;99373.63;;;3.63;69.39
14790;BME280;7486;51.010;10.366;2024-01-25T08:34:03;99376.97;;;3.75;69.89
14790;BME280;7486;51.010;10.366;2024-01-25T08:36:48;99378.78;;;3.75;69.21
14790;BME280;7486;51.010;10.366;2024-01-25T08:39:34;99382.94;;;3.87;68.79
14790;BME280;7486;51.010;10.366;2024-01-25T08:42:20;99383.09;;;3.95;68.87
14790;BME280;7486;51.010;10.366;2024-01-25T08:45:06;99388.19;;;3.87;69.45
14790;BME280;7486;51.010;10.366;2024-01-25T08:47:51;99337.78;;;3.64;68.36
14790;BME280;7486;51.010;10.366;2024-01-25T08:50:37;99398.69;;;3.87;69.21
14790;BME280;7486;51.010;10.366;2024-01-25T08:53:22;99400.75;;;3.83;68.62
14790;BME280;7486;51.010;10.366;2024-01-25T08:56:08;99389.72;;;3.89;69.06
14790;BME280;7486;51.010;10.366;2024-01-25T08:58:54;99411.81;;;4.06;68.47
14790;BME280;7486;51.010;10.366;2024-01-25T09:01:40;99409.25;;;3.66;69.87
14790;BME280;7486;51.010;10.366;2024-01-25T09:04:25;99416.69;;;3.71;70.05
14790;BME280;7486;51.010;10.366;2024-01-25T09:07:11;99413.91;;;3.62;69.97
14790;BME280;7486;51.010;10.366;2024-01-25T09:09:56;99427.09;;;3.51;70.64
14790;BME280;7486;51.010;10.366;2024-01-25T09:12:41;99398.09;;;3.43;70.54
14790;BME280;7486;51.010;10.366;2024-01-25T09:15:27;99415.19;;;3.38;71.07
14790;BME280;7486;51.010;10.366;2024-01-25T09:18:13;99424.25;;;3.34;71.62
14790;BME280;7486;51.010;10.366;2024-01-25T09:20:59;99430.72;;;3.60;70.83
14790;BME280;7486;51.010;10.366;2024-01-25T09:23:44;99421.81;;;3.72;70.54
14790;BME280;7486;51.010;10.366;2024-01-25T09:26:30;99440.44;;;3.79;69.53
14790;BME280;7486;51.010;10.366;2024-01-25T09:29:16;99406.13;;;3.42;70.88
14790;BME280;7486;51.010;10.366;2024-01-25T09:32:02;99446.97;;;3.54;71.08
14790;BME280;7486;51.010;10.366;2024-01-25T09:34:48;99439.94;;;3.54;70.25
14790;BME280;7486;51.010;10.366;2024-01-25T09:37:34;99451.13;;;3.15;71.46
14790;BME280;7486;51.010;10.366;2024-01-25T09:40:19;99428.28;;;3.17;71.50
14790;BME280;7486;51.010;10.366;2024-01-25T09:43:06;99442.56;;;3.54;70.25
14790;BME280;7486;51.010;10.366;2024-01-25T09:45:53;99443.00;;;3.59;70.19
14790;BME280;7486;51.010;10.366;2024-01-25T09:48:41;99440.06;;;3.83;68.44
14790;BME280;7486;51.010;10.366;2024-01-25T09:51:31;99423.63;;;3.81;69.62
14790;BME280;7486;51.010;10.366;2024-01-25T09:54:19;99447.84;;;4.04;68.87
14790;BME280;7486;51.010;10.366;2024-01-25T09:57:15;99447.41;;;4.08;69.34
14790;BME280;7486;51.010;10.366;2024-01-25T10:00:01;99443.88;;;4.38;67.65
14790;BME280;7486;51.010;10.366;2024-01-25T10:02:49;99448.53;;;4.25;68.47
14790;BME280;7486;51.010;10.366;2024-01-25T10:05:34;99438.59;;;4.19;68.99
14790;BME280;7486;51.010;10.366;2024-01-25T10:08:20;99465.56;;;4.40;67.50
14790;BME280;7486;51.010;10.366;2024-01-25T10:11:06;99454.63;;;4.26;66.98
14790;BME280;7486;51.010;10.366;2024-01-25T10:13:52;99460.69;;;4.26;67.60
14790;BME280;7486;51.010;10.366;2024-01-25T10:16:37;99461.69;;;4.54;66.83
14790;BME280;7486;51.010;10.366;2024-01-25T10:19:23;99391.25;;;4.11;66.78
14790;BME280;7486;51.010;10.366;2024-01-25T10:22:10;99451.91;;;4.75;66.94
14790;BME280;7486;51.010;10.366;2024-01-25T10:24:56;99457.28;;;4.74;66.52
14790;BME280;7486;51.010;10.366;2024-01-25T10:27:41;99459.22;;;4.72;66.38
14790;BME280;7486;51.010;10.366;2024-01-25T10:30:27;99461.28;;;4.78;66.15
14790;BME280;7486;51.010;10.366;2024-01-25T10:33:17;99457.28;;;4.74;65.24
14790;BME280;7486;51.010;10.366;2024-01-25T10:36:04;99432.56;;;4.47;66.34
14790;BME280;7486;51.010;10.366;2024-01-25T10:38:53;99435.59;;;4.52;67.90
14790;BME280;7486;51.010;10.366;2024-01-25T10:41:40;99452.03;;;4.93;67.28
14790;BME280;7486;51.010;10.366;2024-01-25T10:44:26;99448.03;;;4.89;66.28
14790;BME280;7486;51.010;10.366;2024-01-25T10:47:12;99440.97;;;4.60;66.46
14790;BME280;7486;51.010;10.366;2024-01-25T10:49:58;99441.13;;;4.68;66.86
14790;BME280;7486;51.010;10.366;2024-01-25T10:52:44;99441.38;;;4.56;66.47
14790;BME280;7486;51.010;10.366;2024-01-25T10:55:31;99447.34;;;4.58;65.78
14790;BME280;7486;51.010;10.366;2024-01-25T10:58:17;99446.63;;;4.37;65.55
14790;BME280;7486;51.010;10.366;2024-01-25T11:01:07;99450.75;;;4.30;66.43
14790;BME280;7486;51.010;10.366;2024-01-25T11:03:54;99432.66;;;4.07;67.07
14790;BME280;7486;51.010;10.366;2024-01-25T11:06:40;99441.47;;;3.97;67.09
14790;BME280;7486;51.010;10.366;2024-01-25T11:09:26;99460.53;;;4.18;67.44
14790;BME280;7486;51.010;10.366;2024-01-25T11:12:12;99431.75;;;3.88;66.36
14790;BME280;7486;51.010;10.366;2024-01-25T11:14:57;99459.31;;;4.22;66.42
14790;BME280;7486;51.010;10.366;2024-01-25T11:17:50;99476.31;;;4.37;67.24
14790;BME280;7486;51.010;10.366;2024-01-25T11:20:36;99482.28;;;4.78;65.78
14790;BME280;7486;51.010;10.366;2024-01-25T11:23:22;99465.41;;;4.80;65.29
14790;BME280;7486;51.010;10.366;2024-01-25T11:26:08;99444.44;;;4.51;65.74
14790;BME280;7486;51.010;10.366;2024-01-25T11:28:54;99465.69;;;4.87;65.12
14790;BME280;7486;51.010;10.366;2024-01-25T11:31:40;99466.81;;;4.75;65.34
14790;BME280;7486;51.010;10.366;2024-01-25T11:34:25;99448.59;;;4.83;65.24
14790;BME280;7486;51.010;10.366;2024-01-25T11:37:11;99456.72;;;4.80;64.63
14790;BME280;7486;51.010;10.366;2024-01-25T11:39:56;99453.69;;;4.84;65.07
14790;BME280;7486;51.010;10.366;2024-01-25T11:42:44;99438.06;;;4.63;65.54
14790;BME280;7486;51.010;10.366;2024-01-25T11:45:31;99395.69;;;4.58;65.40
14790;BME280;7486;51.010;10.366;2024-01-25T11:48:18;99409.88;;;4.85;65.83
14790;BME280;7486;51.010;10.366;2024-01-25T11:51:04;99432.38;;;5.16;64.53
14790;BME280;7486;51.010;10.366;2024-01-25T11:53:50;99417.81;;;5.31;63.81
14790;BME280;7486;51.010;10.366;2024-01-25T11:56:38;99443.34;;;5.48;63.44
14790;BME280;7486;51.010;10.366;2024-01-25T11:59:25;99435.03;;;5.53;62.81
14790;BME280;7486;51.010;10.366;2024-01-25T12:02:10;99436.94;;;5.14;64.13
14790;BME280;7486;51.010;10.366;2024-01-25T12:04:56;99436.13;;;4.85;64.63
14790;BME280;7486;51.010;10.366;2024-01-25T12:07:42;99422.16;;;4.94;64.93
14790;BME280;7486;51.010;10.366;2024-01-25T12:10:27;99411.63;;;5.13;63.63
14790;BME280;7486;51.010;10.366;2024-01-25T12:13:14;99441.28;;;5.42;63.43
14790;BME280;7486;51.010;10.366;2024-01-25T12:15:59;99444.72;;;5.52;62.92
14790;BME280;7486;51.010;10.366;2024-01-25T12:18:45;99438.53;;;5.44;63.09
14790;BME280;7486;51.010;10.366;2024-01-25T12:21:33;99406.22;;;5.24;62.21
14790;BME280;7486;51.010;10.366;2024-01-25T12:24:19;99433.88;;;5.28;63.24
14790;BME280;7486;51.010;10.366;2024-01-25T12:27:05;99424.59;;;5.24;62.96
14790;BME280;7486;51.010;10.366;2024-01-25T12:29:51;99415.31;;;5.39;63.41
14790;BME280;7486;51.010;10.366;2024-01-25T12:32:37;99421.75;;;5.54;61.42
14790;BME280;7486;51.010;10.366;2024-01-25T12:35:23;99411.25;;;5.45;62.90
14790;BME280;7486;51.010;10.366;2024-01-25T12:38:08;99410.00;;;5.49;61.70
14790;BME280;7486;51.010;10.366;2024-01-25T12:40:54;99402.66;;;5.52;62.13
14790;BME280;7486;51.010;10.366;2024-01-25T12:43:41;99419.38;;;5.61;61.54
14790;BME280;7486;51.010;10.366;2024-01-25T12:46:26;99396.19;;;5.47;61.53
14790;BME280;7486;51.010;10.366;2024-01-25T12:49:13;99416.59;;;5.62;60.87
14790;BME280;7486;51.010;10.366;2024-01-25T12:51:59;99359.44;;;4.91;62.01
14790;BME280;7486;51.010;10.366;2024-01-25T12:54:45;99393.94;;;5.15;62.34
14790;BME280;7486;51.010;10.366;2024-01-25T12:57:30;99396.16;;;5.00;62.39
14790;BME280;7486;51.010;10.366;2024-01-25T13:00:16;99390.56;;;4.86;63.66
14790;BME280;7486;51.010;10.366;2024-01-25T13:03:02;99373.81;;;4.87;63.73
14790;BME280;7486;51.010;10.366;2024-01-25T13:05:48;99332.66;;;4.78;63.56
14790;BME280;7486;51.010;10.366;2024-01-25T13:08:34;99394.16;;;5.31;62.94
14790;BME280;7486;51.010;10.366;2024-01-25T13:11:19;99352.72;;;4.79;63.48
14790;BME280;7486;51.010;10.366;2024-01-25T13:14:05;99386.91;;;5.06;64.42
14790;BME280;7486;51.010;10.366;2024-01-25T13:16:50;99373.81;;;4.87;63.77
14790;BME280;7486;51.010;10.366;2024-01-25T13:19:36;99381.72;;;5.33;63.35
14790;BME280;7486;51.010;10.366;2024-01-25T13:22:22;99376.66;;;5.77;62.44
14790;BME280;7486;51.010;10.366;2024-01-25T13:25:08;99374.50;;;5.90;61.80
14790;BME280;7486;51.010;10.366;2024-01-25T13:27:53;99364.06;;;5.80;61.24
14790;BME280;7486;51.010;10.366;2024-01-25T13:30:38;99362.91;;;5.65;62.42
14790;BME280;7486;51.010;10.366;2024-01-25T13:33:24;99357.13;;;5.61;61.59
14790;BME280;7486;51.010;10.366;2024-01-25T13:36:09;99370.28;;;5.79;61.89
14790;BME280;7486;51.010;10.366;2024-01-25T13:38:57;99371.22;;;5.88;61.85
14790;BME280;7486;51.010;10.366;2024-01-25T13:41:42;99373.97;;;5.86;60.47
14790;BME280;7486;51.010;10.366;2024-01-25T13:44:28;99365.84;;;5.80;60.96
14790;BME280;7486;51.010;10.366;2024-01-25T13:47:13;99367.34;;;5.64;60.66
14790;BME280;7486;51.010;10.366;2024-01-25T13:50:01;99286.75;;;4.91;60.86
14790;BME280;7486;51.010;10.366;2024-01-25T13:52:46;99355.75;;;5.30;61.30
14790;BME280;7486;51.010;10.366;2024-01-25T13:55:32;99388.75;;;5.42;62.77
14790;BME280;7486;51.010;10.366;2024-01-25T13:58:17;99392.25;;;5.60;62.02
14790;BME280;7486;51.010;10.366;2024-01-25T14:01:02;99388.28;;;5.20;63.07
14790;BME280;7486;51.010;10.366;2024-01-25T14:03:48;99350.97;;;5.06;62.02
14790;BME280;7486;51.010;10.366;2024-01-25T14:06:33;99380.81;;;5.15;63.01
14790;BME280;7486;51.010;10.366;2024-01-25T14:09:19;99379.63;;;4.81;63.15
14790;BME280;7486;51.010;10.366;2024-01-25T14:12:05;99375.19;;;4.91;63.69
14790;BME280;7486;51.010;10.366;2024-01-25T14:14:52;99368.19;;;5.28;62.61
14790;BME280;7486;51.010;10.366;2024-01-25T14:17:37;99344.47;;;5.47;62.50
14790;BME280;7486;51.010;10.366;2024-01-25T14:20:23;99369.38;;;5.43;62.10
14790;BME280;7486;51.010;10.366;2024-01-25T14:23:09;99371.03;;;4.98;62.93
14790;BME280;7486;51.010;10.366;2024-01-25T14:25:55;99363.41;;;5.04;63.96
14790;BME280;7486;51.010;10.366;2024-01-25T14:28:41;99370.72;;;5.20;63.63
14790;BME280;7486;51.010;10.366;2024-01-25T14:31:26;99372.00;;;5.43;63.01
14790;BME280;7486;51.010;10.366;2024-01-25T14:34:13;99357.66;;;5.65;62.09
14790;BME280;7486;51.010;10.366;2024-01-25T14:36:59;99366.28;;;5.57;62.17
14790;BME280;7486;51.010;10.366;2024-01-25T14:39:45;99360.91;;;5.49;61.11
14790;BME280;7486;51.010;10.366;2024-01-25T14:42:51;99364.97;;;5.44;61.74
14790;BME280;7486;51.010;10.366;2024-01-25T14:45:37;99359.78;;;5.52;61.72
14790;BME280;7486;51.010;10.366;2024-01-25T14:48:23;99341.84;;;5.47;61.60